| time (UTC) | temp F | wind direction | speed MPH | gust MPH | rain 1hr in | rain 24hr in | rain mn in | humidity % | barometer mb |
| 20260903235202 | 71 | 115 | 0.0 | 0.0 | 0.00 | 0.07 | 0.07 | 84 | 1009.4 |
| 20260903235032 | 69 | 109 | 0.0 | 0.0 | 0.00 | 0.09 | 0.09 | 90 | 1010.3 |
| 20260903234703 | 72 | 115 | 0.0 | 0.0 | 0.00 | 0.07 | 0.07 | 84 | 1009.5 |
| 20260903234527 | 69 | 111 | 0.0 | 0.0 | 0.00 | 0.09 | 0.09 | 90 | 1010.2 |
| 20260903234202 | 72 | 115 | 0.0 | 0.0 | 0.00 | 0.07 | 0.07 | 84 | 1009.4 |
| 20260903234022 | 69 | 144 | 0.0 | 0.0 | 0.00 | 0.09 | 0.09 | 90 | 1010.2 |
| 20260903233703 | 72 | 96 | 0.0 | 0.0 | 0.00 | 0.07 | 0.07 | 83 | 1009.2 |
| 20260903233518 | 69 | 109 | 0.0 | 0.0 | 0.00 | 0.09 | 0.09 | 89 | 1010.1 |
| 20260903233202 | 72 | 96 | 0.0 | 0.0 | 0.00 | 0.07 | 0.07 | 83 | 1009.2 |
| 20260903233014 | 69 | 128 | 0.0 | 0.0 | 0.00 | 0.09 | 0.09 | 89 | 1009.9 |
| 20260903232702 | 73 | 96 | 0.0 | 0.0 | 0.00 | 0.07 | 0.07 | 82 | 1009.2 |
| 20260903232509 | 70 | 141 | 0.0 | 0.0 | 0.00 | 0.09 | 0.09 | 88 | 1010.1 |
| 20260903232203 | 73 | 96 | 0.0 | 0.0 | 0.00 | 0.07 | 0.07 | 82 | 1009.3 |
| 20260903232009 | 70 | 146 | 0.0 | 0.0 | 0.00 | 0.09 | 0.09 | 87 | 1009.9 |
| 20260903231702 | 73 | 96 | 0.0 | 0.0 | 0.00 | 0.07 | 0.07 | 82 | 1009.2 |
| 20260903231503 | 71 | 147 | 0.0 | 0.0 | 0.00 | 0.09 | 0.09 | 86 | 1010.1 |
| 20260903231202 | 73 | 96 | 0.0 | 0.0 | 0.00 | 0.07 | 0.07 | 81 | 1009.3 |
| 20260903230957 | 71 | 203 | 0.0 | 0.0 | 0.00 | 0.09 | 0.09 | 85 | 1010.2 |
| 20260903230702 | 74 | 96 | 0.0 | 0.0 | 0.00 | 0.07 | 0.07 | 81 | 1009.4 |
| 20260903230454 | 72 | 125 | 0.0 | 0.0 | 0.00 | 0.09 | 0.09 | 84 | 1010.2 |
| 20260903230203 | 74 | 96 | 0.0 | 0.0 | 0.00 | 0.07 | 0.07 | 81 | 1009.4 |
| 20260903225950 | 72 | 120 | 0.0 | 0.0 | 0.00 | 0.09 | 0.09 | 83 | 1010.3 |
| 20260903225702 | 74 | 96 | 0.0 | 0.0 | 0.00 | 0.07 | 0.07 | 80 | 1009.5 |
| 20260903225445 | 73 | 143 | 0.0 | 0.0 | 0.00 | 0.09 | 0.09 | 82 | 1010.4 |
| 20260903225202 | 74 | 96 | 0.0 | 0.0 | 0.00 | 0.07 | 0.07 | 80 | 1009.4 |
| 20260903224942 | 73 | 142 | 0.0 | 0.0 | 0.00 | 0.09 | 0.09 | 82 | 1010.4 |
| 20260903224703 | 75 | 96 | 0.0 | 0.0 | 0.00 | 0.07 | 0.07 | 80 | 1009.3 |
| 20260903224437 | 73 | 140 | 0.0 | 0.0 | 0.00 | 0.09 | 0.09 | 81 | 1010.0 |
| 20260903224203 | 75 | 96 | 0.0 | 0.0 | 0.00 | 0.07 | 0.07 | 80 | 1009.3 |
| 20260903223933 | 73 | 135 | 0.0 | 1.0 | 0.00 | 0.09 | 0.09 | 80 | 1010.2 |
| 20260903223703 | 75 | 91 | 0.0 | 0.0 | 0.00 | 0.07 | 0.07 | 80 | 1009.2 |
| 20260903223432 | 74 | 120 | 0.0 | 2.0 | 0.00 | 0.09 | 0.09 | 80 | 1010.1 |
| 20260903223203 | 75 | 136 | 0.0 | 0.0 | 0.00 | 0.07 | 0.07 | 79 | 1009.4 |
| 20260903222931 | 74 | 97 | 0.0 | 1.0 | 0.00 | 0.09 | 0.09 | 79 | 1010.3 |
| 20260903222702 | 75 | 109 | 0.0 | 1.0 | 0.00 | 0.07 | 0.07 | 79 | 1009.6 |
| 20260903222427 | 75 | 143 | 0.0 | 1.0 | 0.00 | 0.09 | 0.09 | 79 | 1010.6 |
| 20260903222203 | 76 | 91 | 0.0 | 0.0 | 0.00 | 0.07 | 0.07 | 79 | 1009.7 |
| 20260903221926 | 75 | 86 | 1.0 | 2.0 | 0.00 | 0.09 | 0.09 | 77 | 1010.7 |
| 20260903221703 | 76 | 94 | 0.0 | 0.0 | 0.00 | 0.07 | 0.07 | 79 | 1009.8 |
| 20260903221425 | 75 | 114 | 0.0 | 1.0 | 0.00 | 0.09 | 0.09 | 77 | 1010.6 |
| 20260903221203 | 76 | 67 | 0.0 | 0.0 | 0.00 | 0.07 | 0.07 | 79 | 1009.7 |
| 20260903220923 | 76 | 184 | 1.0 | 2.0 | 0.00 | 0.09 | 0.09 | 76 | 1010.3 |
| 20260903220703 | 76 | 171 | 0.0 | 0.0 | 0.00 | 0.07 | 0.07 | 79 | 1009.7 |
| 20260903220418 | 76 | 194 | 1.0 | 2.0 | 0.00 | 0.09 | 0.09 | 75 | 1010.5 |
| 20260903220202 | 76 | 129 | 0.0 | 0.0 | 0.00 | 0.07 | 0.07 | 79 | 1009.7 |
| 20260903215916 | 77 | 106 | 0.0 | 2.0 | 0.00 | 0.09 | 0.09 | 74 | 1010.4 |
| 20260903215702 | 76 | 111 | 0.0 | 0.0 | 0.00 | 0.07 | 0.07 | 79 | 1009.6 |
| 20260903215413 | 77 | 104 | 2.0 | 3.0 | 0.00 | 0.09 | 0.09 | 74 | 1010.5 |
| 20260903215202 | 76 | 315 | 0.0 | 0.0 | 0.00 | 0.07 | 0.07 | 79 | 1009.8 |
| 20260903214911 | 76 | 155 | 0.0 | 1.0 | 0.00 | 0.09 | 0.09 | 76 | 1010.5 |
| 20260903214703 | 76 | 315 | 0.0 | 0.0 | 0.00 | 0.07 | 0.07 | 79 | 1009.8 |
| 20260903214407 | 76 | 152 | 0.0 | 1.0 | 0.00 | 0.09 | 0.09 | 76 | 1010.6 |
| 20260903214202 | 76 | 315 | 0.0 | 0.0 | 0.00 | 0.07 | 0.07 | 78 | 1009.8 |
| 20260903213906 | 76 | 161 | 1.0 | 1.0 | 0.00 | 0.09 | 0.09 | 76 | 1010.7 |
| 20260903213703 | 76 | 315 | 0.0 | 0.0 | 0.00 | 0.07 | 0.07 | 78 | 1009.8 |
| 20260903213401 | 75 | 166 | 0.0 | 1.0 | 0.00 | 0.09 | 0.09 | 76 | 1010.4 |
| 20260903213202 | 76 | 315 | 0.0 | 0.0 | 0.00 | 0.07 | 0.07 | 77 | 1009.7 |
| 20260903212857 | 75 | 314 | 2.0 | 2.0 | 0.00 | 0.09 | 0.09 | 76 | 1010.7 |
| 20260903212702 | 76 | 317 | 0.0 | 0.0 | 0.00 | 0.07 | 0.07 | 77 | 1009.7 |
| 20260903212353 | 75 | 310 | 1.0 | 2.0 | 0.00 | 0.09 | 0.09 | 75 | 1010.4 |
| 20260903212202 | 77 | 319 | 0.0 | 0.0 | 0.00 | 0.07 | 0.07 | 76 | 1009.7 |
| 20260903211852 | 75 | 177 | 1.0 | 1.0 | 0.00 | 0.09 | 0.09 | 76 | 1010.6 |
| 20260903211702 | 77 | 319 | 0.0 | 0.0 | 0.00 | 0.07 | 0.07 | 76 | 1009.8 |
| 20260903211348 | 75 | 308 | 1.0 | 1.0 | 0.00 | 0.09 | 0.09 | 75 | 1010.5 |
| 20260903211202 | 77 | 194 | 0.0 | 0.0 | 0.00 | 0.07 | 0.07 | 75 | 1009.7 |
| 20260903210845 | 77 | 175 | 2.0 | 2.0 | 0.00 | 0.09 | 0.09 | 73 | 1010.6 |
| 20260903210702 | 77 | 190 | 0.0 | 0.0 | 0.00 | 0.07 | 0.07 | 76 | 1009.7 |
| 20260903210344 | 77 | 178 | 1.0 | 2.0 | 0.00 | 0.09 | 0.09 | 74 | 1010.4 |
| 20260903210202 | 77 | 190 | 0.0 | 0.0 | 0.00 | 0.07 | 0.07 | 76 | 1009.7 |
| 20260903205839 | 77 | 177 | 1.0 | 1.0 | 0.00 | 0.09 | 0.09 | 72 | 1010.5 |
| 20260903205702 | 77 | 208 | 0.0 | 0.0 | 0.00 | 0.07 | 0.07 | 77 | 1009.7 |
| 20260903205338 | 77 | 167 | 2.0 | 2.0 | 0.00 | 0.09 | 0.09 | 72 | 1010.5 |
| 20260903205203 | 77 | 200 | 0.0 | 0.0 | 0.00 | 0.07 | 0.07 | 77 | 1009.7 |
| 20260903204834 | 77 | 173 | 1.0 | 2.0 | 0.00 | 0.09 | 0.09 | 72 | 1010.7 |
| 20260903204702 | 76 | 205 | 0.0 | 0.0 | 0.00 | 0.07 | 0.07 | 77 | 1009.8 |
| 20260903204330 | 77 | 167 | 1.0 | 2.0 | 0.00 | 0.09 | 0.09 | 71 | 1010.7 |
| 20260903203825 | 77 | 187 | 0.0 | 1.0 | 0.00 | 0.09 | 0.09 | 73 | 1010.8 |
| 20260903203702 | 76 | 246 | 0.0 | 0.0 | 0.00 | 0.07 | 0.07 | 77 | 1010.0 |
| 20260903203321 | 77 | 173 | 1.0 | 3.0 | 0.00 | 0.09 | 0.09 | 72 | 1010.7 |
| 20260903203202 | 76 | 240 | 0.0 | 0.0 | 0.00 | 0.07 | 0.07 | 78 | 1010.0 |
| 20260903202820 | 77 | 235 | 1.0 | 2.0 | 0.00 | 0.09 | 0.09 | 72 | 1010.7 |
| 20260903202703 | 76 | 263 | 0.0 | 0.0 | 0.00 | 0.07 | 0.07 | 77 | 1010.0 |
| 20260903202317 | 76 | 270 | 1.0 | 2.0 | 0.00 | 0.09 | 0.09 | 73 | 1010.6 |
| 20260903202202 | 76 | 294 | 0.0 | 0.0 | 0.00 | 0.07 | 0.07 | 78 | 1009.9 |
| 20260903201815 | 77 | 213 | 2.0 | 2.0 | 0.00 | 0.09 | 0.09 | 71 | 1010.8 |
| 20260903201702 | 75 | 315 | 0.0 | 0.0 | 0.00 | 0.07 | 0.07 | 79 | 1010.0 |
| 20260903201311 | 76 | 287 | 1.0 | 2.0 | 0.00 | 0.09 | 0.09 | 73 | 1011.0 |
| 20260903201203 | 75 | 317 | 0.0 | 0.0 | 0.00 | 0.07 | 0.07 | 79 | 1010.1 |
| 20260903200809 | 75 | 131 | 0.0 | 0.0 | 0.00 | 0.09 | 0.09 | 75 | 1011.0 |
| 20260903200703 | 75 | 178 | 0.0 | 0.0 | 0.00 | 0.07 | 0.07 | 78 | 1010.2 |
| 20260903200305 | 75 | 198 | 2.0 | 2.0 | 0.00 | 0.09 | 0.09 | 75 | 1010.8 |
| 20260903200202 | 75 | 176 | 0.0 | 0.0 | 0.00 | 0.07 | 0.07 | 78 | 1010.1 |
| 20260903195800 | 75 | 146 | 0.0 | 1.0 | 0.00 | 0.09 | 0.09 | 75 | 1010.9 |
| 20260903195702 | 75 | 235 | 0.0 | 0.0 | 0.00 | 0.07 | 0.07 | 78 | 1010.1 |
| 20260903195256 | 75 | 209 | 1.0 | 1.0 | 0.00 | 0.09 | 0.09 | 75 | 1011.2 |
| 20260903195203 | 75 | 232 | 0.0 | 0.0 | 0.00 | 0.07 | 0.07 | 78 | 1010.3 |
| 20260903194751 | 74 | 210 | 2.0 | 2.0 | 0.00 | 0.09 | 0.09 | 77 | 1011.1 |
| 20260903194702 | 75 | 244 | 0.0 | 0.0 | 0.00 | 0.07 | 0.07 | 78 | 1010.4 |
| 20260903194247 | 75 | 90 | 0.0 | 1.0 | 0.00 | 0.09 | 0.09 | 75 | 1011.1 |
| 20260903194202 | 75 | 276 | 0.0 | 0.0 | 0.00 | 0.07 | 0.07 | 78 | 1010.3 |
| 20260903193742 | 75 | 280 | 1.0 | 3.0 | 0.00 | 0.09 | 0.09 | 74 | 1011.2 |
| 20260903193238 | 76 | 247 | 1.0 | 2.0 | 0.00 | 0.09 | 0.09 | 73 | 1011.4 |
| 20260903193203 | 75 | 93 | 0.0 | 0.0 | 0.00 | 0.07 | 0.07 | 79 | 1010.5 |
| 20260903192734 | 77 | 147 | 1.0 | 2.0 | 0.00 | 0.09 | 0.09 | 72 | 1011.5 |
| 20260903192229 | 78 | 165 | 0.0 | 2.0 | 0.00 | 0.09 | 0.09 | 70 | 1011.4 |
| 20260903192203 | 75 | 78 | 0.0 | 0.0 | 0.00 | 0.07 | 0.07 | 81 | 1010.7 |
| 20260903191725 | 76 | 245 | 2.0 | 3.0 | 0.00 | 0.09 | 0.09 | 73 | 1011.5 |
| 20260903191221 | 75 | 156 | 0.0 | 1.0 | 0.00 | 0.09 | 0.09 | 75 | 1011.6 |
| 20260903191202 | 73 | 97 | 0.0 | 0.0 | 0.00 | 0.07 | 0.07 | 82 | 1010.7 |
| 20260903190715 | 74 | 100 | 0.0 | 2.0 | 0.00 | 0.09 | 0.09 | 77 | 1011.6 |
| 20260903190215 | 74 | 144 | 2.0 | 2.0 | 0.00 | 0.09 | 0.09 | 76 | 1011.6 |
| 20260903190202 | 73 | 129 | 0.0 | 0.0 | 0.00 | 0.07 | 0.07 | 83 | 1010.7 |
| 20260903185710 | 75 | 141 | 4.0 | 4.0 | 0.00 | 0.09 | 0.09 | 74 | 1011.4 |
| 20260903185210 | 74 | 177 | 1.0 | 2.0 | 0.00 | 0.09 | 0.09 | 75 | 1011.5 |
| 20260903184707 | 73 | 86 | 1.0 | 2.0 | 0.00 | 0.09 | 0.09 | 77 | 1011.5 |
| 20260903184702 | 71 | 14 | 0.0 | 0.0 | 0.00 | 0.07 | 0.07 | 85 | 1010.8 |
| 20260903184202 | 71 | 325 | 0.0 | 0.0 | 0.00 | 0.07 | 0.07 | 87 | 1010.9 |
| 20260903183703 | 70 | 216 | 0.0 | 0.0 | 0.00 | 0.07 | 0.07 | 87 | 1011.0 |
| 20260903183701 | 72 | 225 | 2.0 | 2.0 | 0.00 | 0.09 | 0.09 | 80 | 1011.5 |
| 20260903183203 | 70 | 199 | 0.0 | 0.0 | 0.00 | 0.07 | 0.07 | 87 | 1011.0 |
| 20260903183156 | 72 | 174 | 0.0 | 3.0 | 0.00 | 0.09 | 0.09 | 79 | 1011.7 |
| 20260903182655 | 71 | 132 | 1.0 | 1.0 | 0.00 | 0.09 | 0.09 | 81 | 1011.8 |
| 20260903182203 | 69 | 335 | 0.0 | 0.0 | 0.00 | 0.07 | 0.07 | 87 | 1011.1 |
| 20260903182151 | 70 | 109 | 0.0 | 0.0 | 0.00 | 0.09 | 0.09 | 83 | 1012.0 |
| 20260903181703 | 69 | 335 | 0.0 | 0.0 | 0.00 | 0.07 | 0.07 | 88 | 1011.3 |
| 20260903181649 | 69 | 341 | 2.0 | 3.0 | 0.00 | 0.09 | 0.09 | 83 | 1012.1 |
| 20260903181202 | 69 | 138 | 0.0 | 0.0 | 0.00 | 0.07 | 0.07 | 88 | 1011.2 |
| 20260903181144 | 69 | 151 | 0.0 | 1.0 | 0.00 | 0.09 | 0.09 | 85 | 1011.9 |
| 20260903180702 | 69 | 138 | 0.0 | 0.0 | 0.00 | 0.07 | 0.07 | 88 | 1011.4 |
| 20260903180640 | 69 | 137 | 2.0 | 3.0 | 0.00 | 0.09 | 0.09 | 84 | 1012.1 |
| 20260903180202 | 69 | 153 | 0.0 | 0.0 | 0.00 | 0.07 | 0.07 | 88 | 1011.4 |
| 20260903180140 | 69 | 129 | 1.0 | 2.0 | 0.00 | 0.09 | 0.09 | 83 | 1012.3 |
| 20260903175703 | 68 | 341 | 0.0 | 0.0 | 0.00 | 0.07 | 0.07 | 88 | 1011.4 |
| 20260903175639 | 69 | 113 | 0.0 | 1.0 | 0.00 | 0.09 | 0.09 | 83 | 1012.1 |
| 20260903175138 | 69 | 138 | 1.0 | 3.0 | 0.00 | 0.09 | 0.09 | 84 | 1012.4 |
| 20260903174702 | 68 | 305 | 0.0 | 0.0 | 0.00 | 0.07 | 0.07 | 89 | 1011.6 |
| 20260903174633 | 69 | 222 | 1.0 | 2.0 | 0.00 | 0.09 | 0.09 | 84 | 1012.3 |
| 20260903174203 | 68 | 316 | 0.0 | 0.0 | 0.00 | 0.07 | 0.07 | 89 | 1011.6 |
| 20260903174128 | 69 | 67 | 1.0 | 2.0 | 0.00 | 0.09 | 0.09 | 84 | 1012.4 |
| 20260903173703 | 68 | 351 | 0.0 | 0.0 | 0.00 | 0.07 | 0.07 | 89 | 1011.7 |
| 20260903173623 | 68 | 189 | 1.0 | 1.0 | 0.00 | 0.09 | 0.09 | 84 | 1012.6 |
| 20260903173120 | 68 | 322 | 2.0 | 3.0 | 0.00 | 0.09 | 0.09 | 84 | 1012.5 |
| 20260903172702 | 68 | 15 | 0.0 | 7.0 | 0.00 | 0.07 | 0.07 | 90 | 1011.8 |
| 20260903172619 | 68 | 141 | 0.0 | 3.0 | 0.00 | 0.09 | 0.09 | 85 | 1012.3 |
| 20260903172203 | 67 | 298 | 0.0 | 2.0 | 0.00 | 0.07 | 0.07 | 90 | 1011.8 |
| 20260903172115 | 68 | 213 | 1.0 | 1.0 | 0.00 | 0.09 | 0.09 | 86 | 1012.5 |
| 20260903171703 | 67 | 336 | 2.0 | 6.0 | 0.00 | 0.07 | 0.07 | 90 | 1011.7 |
| 20260903171614 | 68 | 262 | 2.0 | 4.0 | 0.00 | 0.09 | 0.09 | 86 | 1012.4 |
| 20260903171203 | 67 | 324 | 0.0 | 0.0 | 0.00 | 0.07 | 0.07 | 91 | 1011.7 |
| 20260903171110 | 68 | 111 | 0.0 | 1.0 | 0.00 | 0.09 | 0.09 | 86 | 1012.4 |
| 20260903170703 | 67 | 287 | 2.0 | 6.0 | 0.00 | 0.07 | 0.07 | 91 | 1011.7 |
| 20260903170609 | 68 | 210 | 3.0 | 4.0 | 0.00 | 0.09 | 0.09 | 86 | 1012.5 |
| 20260903170202 | 67 | 217 | 0.0 | 0.0 | 0.00 | 0.07 | 0.07 | 91 | 1011.6 |
| 20260903170105 | 67 | 140 | 0.0 | 0.0 | 0.00 | 0.09 | 0.09 | 87 | 1012.5 |
| 20260903165702 | 66 | 294 | 0.0 | 0.0 | 0.00 | 0.07 | 0.07 | 91 | 1011.6 |
| 20260903165602 | 67 | 139 | 0.0 | 1.0 | 0.00 | 0.09 | 0.09 | 87 | 1012.5 |
| 20260903165203 | 66 | 92 | 0.0 | 2.0 | 0.00 | 0.07 | 0.07 | 91 | 1011.7 |
| 20260903165058 | 67 | 131 | 0.0 | 1.0 | 0.00 | 0.09 | 0.09 | 87 | 1012.5 |
| 20260903164702 | 66 | 23 | 0.0 | 3.0 | 0.00 | 0.07 | 0.07 | 92 | 1011.8 |
| 20260903164552 | 67 | 104 | 0.0 | 1.0 | 0.00 | 0.09 | 0.09 | 87 | 1012.5 |
| 20260903164202 | 66 | 334 | 0.0 | 7.0 | 0.00 | 0.07 | 0.07 | 92 | 1011.8 |
| 20260903164048 | 67 | 289 | 3.0 | 4.0 | 0.00 | 0.09 | 0.09 | 87 | 1012.5 |
| 20260903163702 | 66 | 340 | 1.0 | 5.0 | 0.00 | 0.07 | 0.07 | 92 | 1011.9 |
| 20260903163542 | 67 | 237 | 2.0 | 3.0 | 0.00 | 0.09 | 0.09 | 87 | 1012.5 |
| 20260903163202 | 66 | 5 | 0.0 | 0.0 | 0.00 | 0.07 | 0.07 | 92 | 1011.9 |
| 20260903163038 | 67 | 121 | 0.0 | 1.0 | 0.00 | 0.09 | 0.09 | 88 | 1012.5 |
| 20260903162535 | 67 | 283 | 1.0 | 2.0 | 0.00 | 0.09 | 0.09 | 88 | 1012.4 |
| 20260903162203 | 66 | 40 | 0.0 | 3.0 | 0.00 | 0.07 | 0.07 | 92 | 1011.9 |
| 20260903162030 | 67 | 133 | 0.0 | 2.0 | 0.00 | 0.09 | 0.09 | 88 | 1012.5 |
| 20260903161702 | 66 | 84 | 0.0 | 0.0 | 0.00 | 0.07 | 0.07 | 92 | 1011.8 |
| 20260903161525 | 66 | 136 | 0.0 | 3.0 | 0.00 | 0.09 | 0.09 | 89 | 1012.5 |
| 20260903161016 | 66 | 218 | 0.0 | 2.0 | 0.00 | 0.09 | 0.09 | 89 | 1012.5 |
| 20260903160703 | 65 | 329 | 0.0 | 0.0 | 0.00 | 0.07 | 0.07 | 93 | 1011.9 |
| 20260903160515 | 66 | 74 | 0.0 | 1.0 | 0.00 | 0.09 | 0.09 | 89 | 1012.5 |
| 20260903160202 | 65 | 307 | 0.0 | 3.0 | 0.00 | 0.07 | 0.07 | 93 | 1011.9 |
| 20260903160010 | 66 | 269 | 0.0 | 3.0 | 0.00 | 0.09 | 0.09 | 89 | 1012.6 |
| 20260903155702 | 65 | 51 | 2.0 | 5.0 | 0.00 | 0.07 | 0.07 | 93 | 1011.9 |
| 20260903155508 | 65 | 298 | 2.0 | 2.0 | 0.00 | 0.09 | 0.09 | 90 | 1012.6 |
| 20260903155202 | 65 | 327 | 1.0 | 5.0 | 0.00 | 0.07 | 0.07 | 93 | 1011.9 |
| 20260903155004 | 65 | 73 | 1.0 | 4.0 | 0.00 | 0.09 | 0.09 | 89 | 1012.5 |
| 20260903154702 | 65 | 342 | 0.0 | 0.0 | 0.00 | 0.07 | 0.07 | 93 | 1012.1 |
| 20260903154459 | 66 | 238 | 2.0 | 3.0 | 0.00 | 0.09 | 0.09 | 89 | 1012.8 |
| 20260903154202 | 65 | 346 | 0.0 | 0.0 | 0.00 | 0.07 | 0.07 | 93 | 1012.1 |
| 20260903153955 | 66 | 132 | 0.0 | 1.0 | 0.00 | 0.09 | 0.09 | 89 | 1012.7 |
| 20260903153702 | 65 | 27 | 0.0 | 0.0 | 0.00 | 0.07 | 0.07 | 93 | 1012.1 |
| 20260903153451 | 66 | 128 | 0.0 | 2.0 | 0.00 | 0.09 | 0.09 | 90 | 1012.8 |
| 20260903153203 | 65 | 111 | 0.0 | 0.0 | 0.00 | 0.07 | 0.07 | 93 | 1012.4 |
| 20260903152947 | 65 | 136 | 0.0 | 0.0 | 0.00 | 0.09 | 0.09 | 91 | 1013.1 |
| 20260903152702 | 64 | 85 | 0.0 | 0.0 | 0.00 | 0.07 | 0.07 | 93 | 1012.4 |
| 20260903152442 | 65 | 143 | 0.0 | 1.0 | 0.00 | 0.09 | 0.09 | 91 | 1013.0 |
| 20260903152203 | 64 | 45 | 0.0 | 0.0 | 0.00 | 0.07 | 0.07 | 93 | 1012.4 |
| 20260903151938 | 65 | 126 | 0.0 | 2.0 | 0.00 | 0.09 | 0.09 | 91 | 1013.2 |
| 20260903151703 | 64 | 44 | 0.0 | 0.0 | 0.00 | 0.07 | 0.07 | 93 | 1012.6 |
| 20260903151432 | 64 | 62 | 0.0 | 1.0 | 0.00 | 0.09 | 0.09 | 91 | 1013.5 |
| 20260903151203 | 64 | 319 | 0.0 | 0.0 | 0.00 | 0.07 | 0.07 | 93 | 1012.7 |
| 20260903150927 | 64 | 106 | 1.0 | 2.0 | 0.00 | 0.09 | 0.09 | 91 | 1013.2 |
| 20260903150702 | 64 | 319 | 0.0 | 0.0 | 0.00 | 0.07 | 0.07 | 93 | 1012.6 |
| 20260903150422 | 65 | 216 | 1.0 | 1.0 | 0.00 | 0.09 | 0.09 | 91 | 1013.4 |
| 20260903150202 | 64 | 332 | 0.0 | 0.0 | 0.00 | 0.07 | 0.07 | 93 | 1012.6 |
| 20260903145917 | 65 | 235 | 1.0 | 2.0 | 0.00 | 0.09 | 0.09 | 90 | 1013.2 |
| 20260903145703 | 64 | 332 | 0.0 | 0.0 | 0.00 | 0.07 | 0.07 | 93 | 1012.6 |
| 20260903145413 | 65 | 99 | 0.0 | 0.0 | 0.00 | 0.09 | 0.09 | 90 | 1013.1 |
| 20260903145202 | 64 | 332 | 0.0 | 0.0 | 0.00 | 0.07 | 0.07 | 93 | 1012.6 |
| 20260903144912 | 65 | 28 | 0.0 | 2.0 | 0.00 | 0.09 | 0.09 | 89 | 1013.2 |
| 20260903144702 | 64 | 332 | 0.0 | 0.0 | 0.00 | 0.07 | 0.07 | 93 | 1012.7 |
| 20260903144406 | 65 | 134 | 0.0 | 1.0 | 0.00 | 0.09 | 0.09 | 90 | 1013.3 |
| 20260903144202 | 64 | 330 | 0.0 | 0.0 | 0.00 | 0.07 | 0.07 | 94 | 1012.6 |
| 20260903143902 | 65 | 74 | 0.0 | 1.0 | 0.00 | 0.09 | 0.09 | 90 | 1013.1 |
| 20260903143359 | 65 | 132 | 0.0 | 1.0 | 0.00 | 0.09 | 0.09 | 90 | 1013.1 |
| 20260903143203 | 64 | 121 | 0.0 | 0.0 | 0.00 | 0.07 | 0.07 | 94 | 1012.5 |
| 20260903142859 | 65 | 74 | 0.0 | 0.0 | 0.00 | 0.09 | 0.09 | 90 | 1013.4 |
| 20260903142702 | 64 | 122 | 0.0 | 0.0 | 0.00 | 0.07 | 0.07 | 94 | 1012.6 |
| 20260903142355 | 64 | 133 | 0.0 | 0.0 | 0.00 | 0.09 | 0.09 | 90 | 1013.3 |
| 20260903142203 | 64 | 123 | 0.0 | 0.0 | 0.00 | 0.07 | 0.07 | 94 | 1012.8 |
| 20260903141851 | 64 | 147 | 0.0 | 0.0 | 0.00 | 0.09 | 0.09 | 90 | 1013.4 |
| 20260903141703 | 64 | 123 | 0.0 | 0.0 | 0.00 | 0.07 | 0.07 | 94 | 1012.9 |
| 20260903141346 | 65 | 134 | 0.0 | 0.0 | 0.00 | 0.09 | 0.09 | 90 | 1013.6 |
| 20260903140841 | 65 | 139 | 0.0 | 0.0 | 0.00 | 0.09 | 0.09 | 90 | 1013.6 |
| 20260903140702 | 64 | 123 | 0.0 | 0.0 | 0.00 | 0.07 | 0.07 | 94 | 1013.0 |
| 20260903140336 | 64 | 124 | 0.0 | 0.0 | 0.00 | 0.09 | 0.09 | 91 | 1013.7 |
| 20260903140202 | 64 | 121 | 0.0 | 0.0 | 0.00 | 0.07 | 0.07 | 94 | 1013.0 |
| 20260903135832 | 64 | 133 | 0.0 | 0.0 | 0.00 | 0.09 | 0.09 | 91 | 1013.8 |
| 20260903135702 | 63 | 122 | 0.0 | 0.0 | 0.00 | 0.07 | 0.07 | 94 | 1013.0 |
| 20260903135328 | 64 | 110 | 0.0 | 0.0 | 0.00 | 0.09 | 0.09 | 92 | 1013.8 |
| 20260903135203 | 63 | 122 | 0.0 | 0.0 | 0.00 | 0.07 | 0.07 | 94 | 1013.0 |
| 20260903134827 | 64 | 120 | 0.0 | 0.0 | 0.00 | 0.09 | 0.09 | 92 | 1013.6 |
| 20260903134703 | 63 | 122 | 0.0 | 0.0 | 0.00 | 0.07 | 0.07 | 94 | 1013.0 |
| 20260903134322 | 64 | 129 | 0.0 | 0.0 | 0.00 | 0.09 | 0.09 | 92 | 1013.6 |
| 20260903134203 | 63 | 122 | 0.0 | 0.0 | 0.00 | 0.07 | 0.07 | 94 | 1013.0 |
| 20260903133820 | 64 | 112 | 0.0 | 0.0 | 0.00 | 0.09 | 0.09 | 92 | 1013.4 |
| 20260903133702 | 63 | 122 | 0.0 | 0.0 | 0.00 | 0.07 | 0.07 | 94 | 1012.9 |
| 20260903133316 | 63 | 140 | 0.0 | 0.0 | 0.00 | 0.09 | 0.09 | 93 | 1013.4 |
| 20260903133202 | 63 | 122 | 0.0 | 0.0 | 0.00 | 0.07 | 0.07 | 94 | 1012.8 |
| 20260903132815 | 63 | 103 | 0.0 | 0.0 | 0.00 | 0.09 | 0.09 | 93 | 1013.5 |
| 20260903132703 | 63 | 122 | 0.0 | 0.0 | 0.00 | 0.07 | 0.07 | 94 | 1012.8 |
| 20260903132311 | 63 | 128 | 0.0 | 0.0 | 0.00 | 0.09 | 0.09 | 93 | 1013.4 |
| 20260903132202 | 63 | 122 | 0.0 | 0.0 | 0.00 | 0.07 | 0.07 | 94 | 1012.7 |
| 20260903131806 | 63 | 184 | 0.0 | 0.0 | 0.00 | 0.09 | 0.09 | 93 | 1013.4 |
| 20260903131702 | 63 | 123 | 0.0 | 0.0 | 0.00 | 0.07 | 0.07 | 94 | 1012.8 |
| 20260903131305 | 63 | 152 | 0.0 | 0.0 | 0.00 | 0.09 | 0.09 | 93 | 1013.6 |
| 20260903131202 | 63 | 123 | 0.0 | 0.0 | 0.00 | 0.07 | 0.07 | 94 | 1012.9 |
| 20260903130800 | 63 | 144 | 0.0 | 0.0 | 0.00 | 0.09 | 0.09 | 94 | 1013.5 |
| 20260903130702 | 63 | 123 | 0.0 | 0.0 | 0.00 | 0.07 | 0.07 | 94 | 1012.9 |
| 20260903130255 | 63 | 103 | 0.0 | 0.0 | 0.00 | 0.09 | 0.09 | 94 | 1013.5 |
| 20260903130203 | 63 | 123 | 0.0 | 0.0 | 0.00 | 0.07 | 0.07 | 94 | 1012.9 |
| 20260903125753 | 63 | 106 | 0.0 | 0.0 | 0.00 | 0.09 | 0.09 | 94 | 1013.4 |
| 20260903125703 | 63 | 123 | 0.0 | 0.0 | 0.00 | 0.07 | 0.07 | 94 | 1012.9 |
| 20260903125249 | 63 | 138 | 1.0 | 1.0 | 0.00 | 0.09 | 0.09 | 94 | 1013.7 |
| 20260903125203 | 62 | 123 | 0.0 | 0.0 | 0.00 | 0.07 | 0.07 | 94 | 1013.0 |
| 20260903124748 | 62 | 141 | 0.0 | 0.0 | 0.00 | 0.09 | 0.09 | 94 | 1013.7 |
| 20260903124703 | 62 | 84 | 0.0 | 0.0 | 0.00 | 0.07 | 0.07 | 94 | 1013.0 |
| 20260903124244 | 62 | 133 | 0.0 | 0.0 | 0.00 | 0.09 | 0.09 | 95 | 1013.8 |
| 20260903124203 | 62 | 84 | 0.0 | 0.0 | 0.00 | 0.07 | 0.07 | 93 | 1013.1 |
| 20260903123742 | 62 | 100 | 0.0 | 0.0 | 0.00 | 0.09 | 0.09 | 95 | 1013.8 |
| 20260903123242 | 62 | 107 | 0.0 | 0.0 | 0.00 | 0.09 | 0.09 | 95 | 1014.0 |
| 20260903123202 | 62 | 157 | 0.0 | 0.0 | 0.00 | 0.07 | 0.07 | 93 | 1013.2 |
| 20260903122740 | 62 | 126 | 1.0 | 1.0 | 0.00 | 0.09 | 0.09 | 95 | 1013.9 |
| 20260903122703 | 62 | 157 | 0.0 | 0.0 | 0.00 | 0.07 | 0.07 | 94 | 1013.3 |
| 20260903122235 | 62 | 131 | 0.0 | 1.0 | 0.00 | 0.09 | 0.09 | 95 | 1014.1 |
| 20260903121733 | 62 | 140 | 0.0 | 0.0 | 0.00 | 0.09 | 0.09 | 95 | 1014.3 |
| 20260903121702 | 62 | 168 | 0.0 | 0.0 | 0.00 | 0.07 | 0.07 | 93 | 1013.5 |
| 20260903121230 | 62 | 127 | 0.0 | 0.0 | 0.00 | 0.09 | 0.09 | 95 | 1014.2 |
| 20260903120730 | 62 | 174 | 0.0 | 2.0 | 0.00 | 0.09 | 0.09 | 95 | 1014.1 |
| 20260903120702 | 62 | 169 | 0.0 | 0.0 | 0.00 | 0.07 | 0.07 | 93 | 1013.4 |
| 20260903120224 | 62 | 126 | 0.0 | 0.0 | 0.00 | 0.09 | 0.09 | 96 | 1014.1 |
| 20260903120203 | 62 | 140 | 0.0 | 0.0 | 0.00 | 0.07 | 0.07 | 93 | 1013.5 |
| 20260903115723 | 62 | 119 | 1.0 | 2.0 | 0.00 | 0.09 | 0.09 | 95 | 1014.2 |
| 20260903115702 | 62 | 143 | 2.0 | 3.0 | 0.00 | 0.07 | 0.07 | 93 | 1013.5 |
| 20260903115219 | 62 | 144 | 1.0 | 1.0 | 0.00 | 0.09 | 0.09 | 95 | 1014.2 |
| 20260903115203 | 62 | 152 | 1.0 | 3.0 | 0.00 | 0.07 | 0.07 | 93 | 1013.7 |
| 20260903114718 | 61 | 125 | 0.0 | 0.0 | 0.00 | 0.09 | 0.09 | 95 | 1014.5 |
| 20260903114214 | 61 | 125 | 0.0 | 0.0 | 0.00 | 0.09 | 0.09 | 95 | 1014.4 |
| 20260903114202 | 62 | 158 | 0.0 | 0.0 | 0.00 | 0.07 | 0.07 | 93 | 1013.8 |
| 20260903113709 | 61 | 123 | 0.0 | 0.0 | 0.00 | 0.09 | 0.09 | 95 | 1014.4 |
| 20260903113702 | 62 | 160 | 0.0 | 0.0 | 0.00 | 0.07 | 0.07 | 93 | 1013.8 |
| 20260903113205 | 61 | 125 | 0.0 | 1.0 | 0.00 | 0.09 | 0.09 | 95 | 1014.3 |
| 20260903113203 | 62 | 161 | 0.0 | 0.0 | 0.00 | 0.07 | 0.07 | 93 | 1013.8 |
| 20260903112702 | 62 | 161 | 0.0 | 0.0 | 0.00 | 0.07 | 0.07 | 93 | 1013.9 |
| 20260903112202 | 62 | 161 | 0.0 | 0.0 | 0.00 | 0.07 | 0.07 | 93 | 1013.9 |
| 20260903112156 | 61 | 130 | 0.0 | 0.0 | 0.00 | 0.09 | 0.09 | 95 | 1014.6 |
| 20260903111702 | 62 | 161 | 1.0 | 2.0 | 0.00 | 0.07 | 0.07 | 93 | 1013.8 |
| 20260903111655 | 61 | 129 | 1.0 | 1.0 | 0.00 | 0.09 | 0.09 | 95 | 1014.4 |
| 20260903111202 | 62 | 161 | 0.0 | 0.0 | 0.00 | 0.07 | 0.07 | 92 | 1013.9 |
| 20260903111150 | 61 | 139 | 0.0 | 0.0 | 0.00 | 0.09 | 0.09 | 95 | 1014.5 |
| 20260903110703 | 62 | 161 | 0.0 | 0.0 | 0.00 | 0.07 | 0.07 | 92 | 1013.8 |
| 20260903110646 | 61 | 143 | 0.0 | 0.0 | 0.00 | 0.09 | 0.09 | 95 | 1014.3 |
| 20260903110202 | 62 | 161 | 1.0 | 3.0 | 0.00 | 0.07 | 0.07 | 92 | 1013.7 |
| 20260903110142 | 61 | 126 | 0.0 | 1.0 | 0.00 | 0.09 | 0.09 | 95 | 1014.4 |
| 20260903105636 | 61 | 122 | 0.0 | 0.0 | 0.00 | 0.09 | 0.09 | 95 | 1014.2 |
| 20260903105203 | 62 | 159 | 0.0 | 0.0 | 0.01 | 0.07 | 0.07 | 92 | 1013.8 |
| 20260903105131 | 61 | 133 | 0.0 | 0.0 | 0.00 | 0.09 | 0.09 | 95 | 1014.3 |
| 20260903104631 | 61 | 122 | 0.0 | 0.0 | 0.00 | 0.09 | 0.09 | 95 | 1014.5 |
| 20260903104126 | 61 | 119 | 0.0 | 1.0 | 0.00 | 0.09 | 0.09 | 95 | 1014.3 |
| 20260903103703 | 62 | 162 | 0.0 | 0.0 | 0.02 | 0.07 | 0.07 | 92 | 1013.8 |
| 20260903103622 | 61 | 84 | 0.0 | 1.0 | 0.00 | 0.09 | 0.09 | 95 | 1014.3 |
| 20260903103202 | 62 | 149 | 0.0 | 0.0 | 0.02 | 0.07 | 0.07 | 92 | 1013.7 |
| 20260903103118 | 61 | 130 | 0.0 | 0.0 | 0.00 | 0.09 | 0.09 | 95 | 1014.5 |
| 20260903102703 | 62 | 150 | 0.0 | 0.0 | 0.02 | 0.07 | 0.07 | 92 | 1013.8 |
| 20260903102613 | 61 | 92 | 0.0 | 0.0 | 0.00 | 0.09 | 0.09 | 95 | 1014.6 |
| 20260903102203 | 62 | 155 | 0.0 | 0.0 | 0.02 | 0.07 | 0.07 | 92 | 1013.7 |
| 20260903102113 | 61 | 118 | 0.0 | 0.0 | 0.00 | 0.09 | 0.09 | 95 | 1014.2 |
| 20260903101702 | 62 | 155 | 0.0 | 0.0 | 0.02 | 0.07 | 0.07 | 92 | 1013.7 |
| 20260903101612 | 61 | 131 | 0.0 | 0.0 | 0.00 | 0.09 | 0.09 | 94 | 1014.4 |
| 20260903101202 | 62 | 155 | 0.0 | 0.0 | 0.02 | 0.07 | 0.07 | 92 | 1013.9 |
| 20260903101108 | 61 | 124 | 0.0 | 0.0 | 0.00 | 0.09 | 0.09 | 94 | 1014.5 |
| 20260903100703 | 62 | 159 | 0.0 | 0.0 | 0.02 | 0.07 | 0.07 | 92 | 1013.8 |
| 20260903100609 | 61 | 142 | 0.0 | 0.0 | 0.07 | 0.09 | 0.09 | 94 | 1014.3 |
| 20260903100108 | 61 | 123 | 0.0 | 0.0 | 0.12 | 0.09 | 0.09 | 94 | 1014.4 |
| 20260903095702 | 62 | 143 | 0.0 | 0.0 | 0.02 | 0.07 | 0.07 | 92 | 1013.7 |
| 20260903095605 | 61 | 175 | 0.0 | 0.0 | 0.05 | 0.08 | 0.08 | 94 | 1014.3 |
| 20260903095202 | 62 | 163 | 0.0 | 0.0 | 0.01 | 0.06 | 0.06 | 91 | 1013.7 |
| 20260903095105 | 61 | 149 | 0.0 | 1.0 | 0.00 | 0.07 | 0.07 | 94 | 1014.3 |
| 20260903094606 | 61 | 149 | 0.0 | 0.0 | 0.00 | 0.07 | 0.07 | 94 | 1014.2 |
| 20260903094101 | 61 | 150 | 1.0 | 1.0 | 0.00 | 0.07 | 0.07 | 94 | 1014.2 |
| 20260903093556 | 61 | 145 | 0.0 | 0.0 | 0.00 | 0.07 | 0.07 | 94 | 1014.4 |
| 20260903093203 | 62 | 153 | 0.0 | 1.0 | 0.00 | 0.05 | 0.05 | 91 | 1013.9 |
| 20260903093052 | 61 | 121 | 0.0 | 0.0 | 0.00 | 0.07 | 0.07 | 93 | 1014.5 |
| 20260903092702 | 62 | 153 | 0.0 | 0.0 | 0.00 | 0.05 | 0.05 | 91 | 1013.9 |
| 20260903092551 | 61 | 133 | 0.0 | 1.0 | 0.00 | 0.07 | 0.07 | 93 | 1014.4 |
| 20260903092045 | 61 | 138 | 0.0 | 1.0 | 0.00 | 0.07 | 0.07 | 93 | 1014.6 |
| 20260903091702 | 62 | 106 | 0.0 | 3.0 | 0.00 | 0.05 | 0.05 | 91 | 1013.9 |
| 20260903091543 | 61 | 75 | 1.0 | 1.0 | 0.00 | 0.07 | 0.07 | 93 | 1014.6 |
| 20260903091202 | 62 | 123 | 2.0 | 6.0 | 0.00 | 0.05 | 0.05 | 90 | 1014.1 |
| 20260903091038 | 61 | 130 | 0.0 | 2.0 | 0.00 | 0.07 | 0.07 | 94 | 1014.5 |
| 20260903090702 | 62 | 100 | 0.0 | 0.0 | 0.00 | 0.05 | 0.05 | 90 | 1014.1 |
| 20260903090535 | 62 | 111 | 0.0 | 0.0 | 0.00 | 0.07 | 0.07 | 94 | 1015.1 |
| 20260903090203 | 63 | 166 | 2.0 | 3.0 | 0.00 | 0.05 | 0.05 | 90 | 1014.2 |
| 20260903090033 | 62 | 145 | 0.0 | 3.0 | 0.00 | 0.07 | 0.07 | 94 | 1014.7 |
| 20260903085703 | 63 | 86 | 0.0 | 0.0 | 0.02 | 0.05 | 0.05 | 90 | 1014.3 |
| 20260903085531 | 62 | 133 | 2.0 | 2.0 | 0.00 | 0.07 | 0.07 | 94 | 1014.9 |
| 20260903085202 | 63 | 179 | 0.0 | 0.0 | 0.05 | 0.05 | 0.05 | 90 | 1014.3 |
| 20260903085027 | 62 | 156 | 1.0 | 1.0 | 0.00 | 0.07 | 0.07 | 94 | 1014.8 |
| 20260903084702 | 63 | 186 | 0.0 | 0.0 | 0.05 | 0.05 | 0.05 | 90 | 1014.1 |
| 20260903084526 | 62 | 126 | 0.0 | 0.0 | 0.00 | 0.07 | 0.07 | 94 | 1014.8 |
| 20260903084203 | 63 | 186 | 0.0 | 0.0 | 0.05 | 0.05 | 0.05 | 90 | 1014.2 |
| 20260903084020 | 62 | 126 | 0.0 | 0.0 | 0.00 | 0.07 | 0.07 | 93 | 1014.8 |
| 20260903083703 | 63 | 186 | 0.0 | 0.0 | 0.05 | 0.05 | 0.05 | 90 | 1014.2 |
| 20260903083517 | 62 | 136 | 0.0 | 0.0 | 0.00 | 0.07 | 0.07 | 93 | 1014.8 |
| 20260903083202 | 63 | 186 | 0.0 | 0.0 | 0.05 | 0.05 | 0.05 | 90 | 1014.1 |
| 20260903083016 | 62 | 136 | 0.0 | 0.0 | 0.00 | 0.07 | 0.07 | 93 | 1014.7 |
| 20260903082510 | 62 | 136 | 0.0 | 0.0 | 0.00 | 0.07 | 0.07 | 92 | 1014.6 |
| 20260903082203 | 64 | 188 | 0.0 | 0.0 | 0.05 | 0.05 | 0.05 | 89 | 1014.2 |
| 20260903082006 | 62 | 136 | 0.0 | 0.0 | 0.00 | 0.07 | 0.07 | 92 | 1014.9 |
| 20260903081703 | 64 | 188 | 0.0 | 0.0 | 0.05 | 0.05 | 0.05 | 89 | 1014.4 |
| 20260903081501 | 63 | 136 | 0.0 | 0.0 | 0.07 | 0.07 | 0.07 | 91 | 1015.0 |
| 20260903081202 | 64 | 188 | 0.0 | 0.0 | 0.05 | 0.05 | 0.05 | 89 | 1014.5 |
| 20260903080951 | 63 | 129 | 0.0 | 0.0 | 0.00 | 0.06 | 0.06 | 90 | 1015.0 |
| 20260903080702 | 64 | 188 | 0.0 | 0.0 | 0.05 | 0.05 | 0.05 | 89 | 1014.4 |
| 20260903080447 | 63 | 123 | 0.0 | 0.0 | 0.24 | 0.06 | 0.06 | 89 | 1015.0 |
| 20260903080203 | 64 | 188 | 0.0 | 0.0 | 0.05 | 0.05 | 0.05 | 89 | 1014.3 |
| 20260903075943 | 64 | 123 | 0.0 | 0.0 | 0.35 | 0.06 | 0.06 | 88 | 1014.8 |
| 20260903075703 | 64 | 188 | 0.0 | 0.0 | 0.03 | 0.03 | 0.03 | 89 | 1014.3 |
| 20260903075438 | 64 | 109 | 0.0 | 1.0 | 0.07 | 0.01 | 0.01 | 86 | 1015.1 |
| 20260903075203 | 63 | 181 | 0.0 | 0.0 | 0.00 | 0.00 | 0.00 | 89 | 1014.3 |
| 20260903074933 | 64 | 132 | 0.0 | 0.0 | 0.00 | 0.00 | 0.00 | 86 | 1015.0 |
| 20260903074703 | 64 | 144 | 0.0 | 0.0 | 0.00 | 0.00 | 0.00 | 89 | 1014.2 |
| 20260903074427 | 64 | 161 | 0.0 | 1.0 | 0.00 | 0.00 | 0.00 | 87 | 1014.7 |
| 20260903073922 | 64 | 135 | 0.0 | 0.0 | 0.00 | 0.00 | 0.00 | 87 | 1014.7 |
| 20260903073703 | 64 | 123 | 0.0 | 0.0 | 0.00 | 0.00 | 0.00 | 89 | 1014.1 |
| 20260903073417 | 64 | 136 | 0.0 | 0.0 | 0.00 | 0.00 | 0.00 | 87 | 1014.7 |
| 20260903073202 | 64 | 129 | 1.0 | 3.0 | 0.00 | 0.00 | 0.00 | 89 | 1014.3 |
| 20260903072913 | 64 | 127 | 1.0 | 2.0 | 0.00 | 0.00 | 0.00 | 87 | 1015.0 |
| 20260903072703 | 64 | 124 | 2.0 | 7.0 | 0.00 | 0.00 | 0.00 | 89 | 1014.3 |
| 20260903072409 | 64 | 132 | 0.0 | 2.0 | 0.00 | 0.00 | 0.00 | 87 | 1015.0 |
| 20260903071906 | 64 | 101 | 1.0 | 3.0 | 0.00 | 0.00 | 0.00 | 88 | 1014.9 |
| 20260903071702 | 64 | 134 | 0.0 | 0.0 | 0.00 | 0.00 | 0.00 | 89 | 1014.2 |
| 20260903071401 | 64 | 105 | 0.0 | 2.0 | 0.00 | 0.00 | 0.00 | 88 | 1014.7 |
| 20260903070857 | 64 | 127 | 1.0 | 2.0 | 0.00 | 0.00 | 0.00 | 88 | 1014.9 |
| 20260903070702 | 64 | 116 | 0.0 | 0.0 | 0.00 | 0.00 | 0.00 | 89 | 1014.3 |
| 20260903070351 | 64 | 84 | 0.0 | 2.0 | 0.00 | 0.00 | 0.00 | 88 | 1015.1 |
| 20260903070203 | 64 | 131 | 0.0 | 0.0 | 0.00 | 0.00 | 0.00 | 89 | 1014.4 |
| 20260903065846 | 64 | 119 | 0.0 | 1.0 | 0.00 | 0.00 | 0.00 | 88 | 1015.2 |
| 20260903065345 | 64 | 131 | 0.0 | 1.0 | 0.00 | 0.00 | 0.00 | 88 | 1015.1 |
| 20260903065202 | 64 | 103 | 1.0 | 3.0 | 0.00 | 0.00 | 0.00 | 89 | 1014.6 |
| 20260903064844 | 64 | 135 | 0.0 | 0.0 | 0.00 | 0.00 | 0.00 | 88 | 1015.4 |
| 20260903064702 | 64 | 142 | 0.0 | 0.0 | 0.00 | 0.00 | 0.00 | 89 | 1014.8 |
| 20260903064340 | 64 | 109 | 1.0 | 2.0 | 0.00 | 0.00 | 0.00 | 88 | 1015.4 |
| 20260903064203 | 64 | 186 | 0.0 | 0.0 | 0.00 | 0.00 | 0.00 | 89 | 1014.9 |
| 20260903063836 | 64 | 114 | 0.0 | 1.0 | 0.00 | 0.00 | 0.00 | 88 | 1015.5 |
| 20260903063703 | 64 | 163 | 0.0 | 0.0 | 0.00 | 0.00 | 0.00 | 89 | 1015.0 |
| 20260903063331 | 64 | 136 | 0.0 | 1.0 | 0.00 | 0.00 | 0.00 | 88 | 1015.7 |
| 20260903063203 | 64 | 96 | 0.0 | 7.0 | 0.00 | 0.00 | 0.00 | 89 | 1015.0 |
| 20260903062826 | 64 | 114 | 0.0 | 2.0 | 0.00 | 0.00 | 0.00 | 88 | 1015.6 |
| 20260903062702 | 64 | 122 | 0.0 | 0.0 | 0.00 | 0.00 | 0.00 | 89 | 1015.2 |
| 20260903062326 | 64 | 153 | 1.0 | 2.0 | 0.00 | 0.00 | 0.00 | 88 | 1016.0 |
| 20260903061823 | 64 | 127 | 0.0 | 1.0 | 0.00 | 0.00 | 0.00 | 88 | 1016.2 |
| 20260903061702 | 64 | 121 | 0.0 | 0.0 | 0.00 | 0.00 | 0.00 | 89 | 1015.7 |
| 20260903061321 | 64 | 133 | 0.0 | 1.0 | 0.00 | 0.00 | 0.00 | 88 | 1016.3 |
| 20260903061203 | 64 | 126 | 1.0 | 6.0 | 0.00 | 0.00 | 0.00 | 89 | 1015.8 |
| 20260903060818 | 64 | 137 | 1.0 | 2.0 | 0.00 | 0.00 | 0.00 | 88 | 1016.7 |
| 20260903060703 | 64 | 159 | 1.0 | 3.0 | 0.00 | 0.00 | 0.00 | 89 | 1016.0 |
| 20260903060317 | 64 | 155 | 1.0 | 1.0 | 0.00 | 0.00 | 0.00 | 88 | 1016.8 |
| 20260903060203 | 64 | 126 | 0.0 | 0.0 | 0.00 | 0.00 | 0.00 | 89 | 1016.2 |
| 20260903055815 | 64 | 98 | 0.0 | 1.0 | 0.00 | 0.00 | 0.00 | 88 | 1016.9 |
| 20260903055313 | 64 | 161 | 1.0 | 3.0 | 0.00 | 0.00 | 0.00 | 88 | 1017.2 |
| 20260903055203 | 64 | 120 | 0.0 | 2.0 | 0.00 | 0.00 | 0.00 | 89 | 1016.3 |
| 20260903054808 | 64 | 150 | 0.0 | 1.0 | 0.00 | 0.00 | 0.00 | 88 | 1017.2 |
| 20260903054702 | 64 | 116 | 0.0 | 2.0 | 0.00 | 0.00 | 0.00 | 89 | 1016.5 |
| 20260903054308 | 64 | 97 | 0.0 | 0.0 | 0.00 | 0.00 | 0.00 | 88 | 1017.3 |
| 20260903053805 | 64 | 132 | 1.0 | 2.0 | 0.00 | 0.00 | 0.00 | 88 | 1017.4 |
| 20260903053703 | 64 | 163 | 0.0 | 0.0 | 0.00 | 0.00 | 0.00 | 89 | 1016.5 |
| 20260903053300 | 64 | 93 | 1.0 | 1.0 | 0.00 | 0.00 | 0.00 | 88 | 1017.1 |
| 20260903053203 | 64 | 77 | 0.0 | 0.0 | 0.00 | 0.00 | 0.00 | 90 | 1016.5 |
| 20260903052755 | 64 | 180 | 2.0 | 2.0 | 0.00 | 0.00 | 0.00 | 88 | 1017.2 |
| 20260903052702 | 64 | 117 | 0.0 | 0.0 | 0.00 | 0.00 | 0.00 | 89 | 1016.5 |
| 20260903052251 | 64 | 164 | 1.0 | 2.0 | 0.00 | 0.00 | 0.00 | 88 | 1017.2 |
| 20260903052203 | 64 | 138 | 1.0 | 3.0 | 0.00 | 0.00 | 0.00 | 90 | 1016.5 |
| 20260903051746 | 64 | 147 | 0.0 | 1.0 | 0.00 | 0.00 | 0.00 | 88 | 1017.3 |
| 20260903051703 | 64 | 88 | 0.0 | 0.0 | 0.00 | 0.00 | 0.00 | 90 | 1016.5 |
| 20260903051242 | 64 | 125 | 0.0 | 2.0 | 0.00 | 0.00 | 0.00 | 88 | 1017.2 |
| 20260903051203 | 64 | 142 | 0.0 | 0.0 | 0.00 | 0.00 | 0.00 | 90 | 1016.4 |
| 20260903050737 | 64 | 166 | 1.0 | 3.0 | 0.00 | 0.00 | 0.00 | 88 | 1017.2 |
| 20260903050702 | 64 | 127 | 2.0 | 7.0 | 0.00 | 0.00 | 0.00 | 90 | 1016.3 |
| 20260903050236 | 64 | 140 | 4.0 | 6.0 | 0.00 | 0.00 | 0.00 | 88 | 1016.9 |
| 20260903050203 | 64 | 95 | 1.0 | 9.0 | 0.00 | 0.00 | 0.00 | 90 | 1016.3 |
| 20260903045731 | 64 | 112 | 0.0 | 1.0 | 0.00 | 0.00 | 0.00 | 88 | 1016.8 |
| 20260903045703 | 64 | 126 | 0.0 | 0.0 | 0.00 | 0.00 | 0.00 | 90 | 1016.2 |
| 20260903045227 | 64 | 119 | 0.0 | 1.0 | 0.00 | 0.00 | 0.00 | 88 | 1016.9 |
| 20260903045202 | 64 | 124 | 0.0 | 6.0 | 0.00 | 0.00 | 0.00 | 89 | 1016.2 |
| 20260903044723 | 64 | 151 | 1.0 | 1.0 | 0.00 | 0.00 | 0.00 | 88 | 1016.9 |
| 20260903044218 | 64 | 102 | 2.0 | 4.0 | 0.00 | 0.00 | 0.00 | 88 | 1017.2 |
| 20260903044202 | 64 | 138 | 0.0 | 0.0 | 0.00 | 0.00 | 0.00 | 89 | 1016.4 |
| 20260903043715 | 64 | 154 | 0.0 | 1.0 | 0.00 | 0.00 | 0.00 | 88 | 1017.3 |
| 20260903043703 | 64 | 100 | 0.0 | 0.0 | 0.00 | 0.00 | 0.00 | 89 | 1016.5 |
| 20260903043214 | 64 | 141 | 2.0 | 3.0 | 0.00 | 0.00 | 0.00 | 89 | 1017.3 |
| 20260903042714 | 64 | 141 | 0.0 | 2.0 | 0.00 | 0.00 | 0.00 | 88 | 1017.2 |
| 20260903042209 | 64 | 104 | 0.0 | 2.0 | 0.00 | 0.00 | 0.00 | 88 | 1017.6 |
| 20260903042203 | 64 | 143 | 0.0 | 0.0 | 0.00 | 0.00 | 0.00 | 89 | 1016.6 |
| 20260903041705 | 64 | 162 | 1.0 | 2.0 | 0.00 | 0.00 | 0.00 | 88 | 1017.5 |
| 20260903041703 | 64 | 135 | 0.0 | 0.0 | 0.00 | 0.00 | 0.00 | 89 | 1016.7 |
| 20260903041201 | 64 | 97 | 0.0 | 3.0 | 0.00 | 0.00 | 0.00 | 88 | 1017.8 |
| 20260903040703 | 64 | 82 | 0.0 | 0.0 | 0.00 | 0.00 | 0.00 | 89 | 1016.8 |
| 20260903040700 | 64 | 109 | 0.0 | 1.0 | 0.00 | 0.00 | 0.00 | 88 | 1017.6 |
| 20260903040203 | 64 | 104 | 0.0 | 0.0 | 0.00 | 0.00 | 0.00 | 89 | 1016.7 |
| 20260903040156 | 64 | 110 | 0.0 | 2.0 | 0.00 | 0.00 | 0.00 | 88 | 1017.4 |
| 20260903035702 | 64 | 124 | 1.0 | 5.0 | 0.00 | 0.00 | 0.00 | 89 | 1016.7 |
| 20260903035651 | 64 | 145 | 3.0 | 3.0 | 0.00 | 0.00 | 0.00 | 88 | 1017.3 |
| 20260903035203 | 64 | 91 | 0.0 | 0.0 | 0.00 | 0.00 | 0.00 | 89 | 1016.9 |
| 20260903035142 | 64 | 123 | 0.0 | 1.0 | 0.00 | 0.00 | 0.00 | 88 | 1017.6 |
| 20260903034703 | 64 | 119 | 0.0 | 0.0 | 0.00 | 0.00 | 0.00 | 89 | 1016.8 |
| 20260903034642 | 64 | 124 | 1.0 | 2.0 | 0.00 | 0.00 | 0.00 | 88 | 1017.7 |
| 20260903034203 | 64 | 117 | 0.0 | 0.0 | 0.00 | 0.00 | 0.00 | 89 | 1016.9 |
| 20260903034136 | 64 | 127 | 0.0 | 1.0 | 0.00 | 0.00 | 0.00 | 88 | 1017.7 |
| 20260903033702 | 64 | 102 | 0.0 | 0.0 | 0.00 | 0.00 | 0.00 | 89 | 1017.0 |
| 20260903033632 | 64 | 128 | 1.0 | 1.0 | 0.00 | 0.00 | 0.00 | 88 | 1017.7 |
| 20260903033202 | 64 | 132 | 0.0 | 0.0 | 0.00 | 0.00 | 0.00 | 89 | 1017.1 |
| 20260903033126 | 64 | 129 | 1.0 | 2.0 | 0.00 | 0.00 | 0.00 | 88 | 1017.9 |
| 20260903032703 | 64 | 125 | 0.0 | 0.0 | 0.00 | 0.00 | 0.00 | 89 | 1017.2 |
| 20260903032621 | 64 | 129 | 0.0 | 3.0 | 0.00 | 0.00 | 0.00 | 88 | 1017.9 |
| 20260903032203 | 64 | 168 | 0.0 | 0.0 | 0.00 | 0.00 | 0.00 | 89 | 1017.3 |
| 20260903032117 | 64 | 161 | 0.0 | 1.0 | 0.00 | 0.00 | 0.00 | 88 | 1018.1 |
| 20260903031702 | 64 | 168 | 0.0 | 1.0 | 0.00 | 0.00 | 0.00 | 89 | 1017.5 |
| 20260903031612 | 64 | 125 | 0.0 | 0.0 | 0.00 | 0.00 | 0.00 | 88 | 1018.3 |
| 20260903031202 | 64 | 101 | 0.0 | 0.0 | 0.00 | 0.00 | 0.00 | 89 | 1017.6 |
| 20260903031107 | 64 | 138 | 0.0 | 0.0 | 0.00 | 0.00 | 0.00 | 88 | 1018.3 |
| 20260903030703 | 64 | 136 | 0.0 | 0.0 | 0.00 | 0.00 | 0.00 | 89 | 1017.6 |
| 20260903030602 | 64 | 128 | 0.0 | 1.0 | 0.00 | 0.00 | 0.00 | 88 | 1018.3 |
| 20260903030058 | 64 | 185 | 1.0 | 2.0 | 0.00 | 0.00 | 0.00 | 89 | 1018.1 |
| 20260903025702 | 64 | 134 | 0.0 | 0.0 | 0.00 | 0.00 | 0.00 | 89 | 1017.5 |
| 20260903025553 | 64 | 144 | 0.0 | 1.0 | 0.00 | 0.00 | 0.00 | 89 | 1018.3 |
| 20260903025203 | 64 | 153 | 0.0 | 0.0 | 0.00 | 0.00 | 0.00 | 89 | 1017.4 |
| 20260903025050 | 64 | 133 | 0.0 | 0.0 | 0.00 | 0.00 | 0.00 | 89 | 1018.2 |
| 20260903024703 | 64 | 153 | 1.0 | 3.0 | 0.00 | 0.00 | 0.00 | 89 | 1017.5 |
| 20260903024549 | 64 | 148 | 1.0 | 2.0 | 0.00 | 0.00 | 0.00 | 89 | 1018.3 |
| 20260903024203 | 64 | 139 | 0.0 | 0.0 | 0.00 | 0.00 | 0.00 | 89 | 1017.5 |
| 20260903024048 | 64 | 109 | 0.0 | 3.0 | 0.00 | 0.00 | 0.00 | 89 | 1018.3 |
| 20260903023702 | 64 | 192 | 0.0 | 1.0 | 0.00 | 0.00 | 0.00 | 89 | 1017.5 |
| 20260903023544 | 64 | 128 | 1.0 | 2.0 | 0.00 | 0.00 | 0.00 | 89 | 1018.3 |
| 20260903023203 | 64 | 161 | 0.0 | 0.0 | 0.00 | 0.00 | 0.00 | 89 | 1017.5 |
| 20260903023040 | 64 | 124 | 0.0 | 2.0 | 0.00 | 0.00 | 0.00 | 89 | 1018.3 |
| 20260903022702 | 64 | 122 | 0.0 | 0.0 | 0.00 | 0.00 | 0.00 | 89 | 1017.5 |
| 20260903022539 | 64 | 158 | 0.0 | 1.0 | 0.00 | 0.00 | 0.00 | 88 | 1018.2 |
| 20260903022202 | 64 | 116 | 1.0 | 6.0 | 0.00 | 0.00 | 0.00 | 89 | 1017.7 |
| 20260903022038 | 64 | 140 | 0.0 | 0.0 | 0.00 | 0.00 | 0.00 | 88 | 1018.4 |
| 20260903021703 | 64 | 105 | 0.0 | 3.0 | 0.00 | 0.00 | 0.00 | 89 | 1017.7 |
| 20260903021533 | 64 | 109 | 0.0 | 0.0 | 0.00 | 0.00 | 0.00 | 88 | 1018.3 |
| 20260903021027 | 64 | 122 | 0.0 | 0.0 | 0.00 | 0.00 | 0.00 | 88 | 1018.4 |
| 20260903020703 | 64 | 143 | 0.0 | 1.0 | 0.00 | 0.00 | 0.00 | 89 | 1017.7 |
| 20260903020523 | 64 | 140 | 0.0 | 1.0 | 0.00 | 0.00 | 0.00 | 88 | 1018.5 |
| 20260903020203 | 64 | 113 | 0.0 | 3.0 | 0.00 | 0.00 | 0.00 | 89 | 1017.8 |
| 20260903020023 | 64 | 127 | 0.0 | 2.0 | 0.00 | 0.00 | 0.00 | 88 | 1018.5 |
| 20260903015703 | 64 | 176 | 0.0 | 1.0 | 0.00 | 0.00 | 0.00 | 89 | 1017.9 |
| 20260903015519 | 64 | 123 | 0.0 | 0.0 | 0.00 | 0.00 | 0.00 | 88 | 1018.7 |
| 20260903015203 | 65 | 156 | 0.0 | 0.0 | 0.00 | 0.00 | 0.00 | 89 | 1018.0 |
| 20260903015015 | 64 | 125 | 0.0 | 1.0 | 0.00 | 0.00 | 0.00 | 89 | 1018.8 |
| 20260903014702 | 64 | 195 | 1.0 | 5.0 | 0.00 | 0.00 | 0.00 | 89 | 1018.0 |
| 20260903014514 | 64 | 165 | 0.0 | 4.0 | 0.00 | 0.00 | 0.00 | 89 | 1018.8 |
| 20260903014202 | 65 | 170 | 0.0 | 0.0 | 0.00 | 0.00 | 0.00 | 89 | 1018.1 |
| 20260903014009 | 64 | 111 | 3.0 | 4.0 | 0.00 | 0.00 | 0.00 | 89 | 1018.8 |
| 20260903013702 | 65 | 166 | 0.0 | 0.0 | 0.00 | 0.00 | 0.00 | 89 | 1018.1 |
| 20260903013508 | 64 | 140 | 1.0 | 2.0 | 0.00 | 0.00 | 0.00 | 89 | 1018.8 |
| 20260903013203 | 65 | 155 | 0.0 | 1.0 | 0.00 | 0.00 | 0.00 | 89 | 1018.0 |
| 20260903013008 | 64 | 157 | 0.0 | 0.0 | 0.00 | 0.00 | 0.00 | 89 | 1018.8 |
| 20260903012702 | 65 | 139 | 0.0 | 0.0 | 0.00 | 0.00 | 0.00 | 89 | 1018.1 |
| 20260903012507 | 64 | 84 | 0.0 | 4.0 | 0.00 | 0.00 | 0.00 | 89 | 1018.8 |
| 20260903012203 | 65 | 162 | 0.0 | 0.0 | 0.00 | 0.00 | 0.00 | 88 | 1018.0 |
| 20260903012007 | 64 | 136 | 0.0 | 1.0 | 0.00 | 0.00 | 0.00 | 89 | 1018.5 |
| 20260903011703 | 65 | 175 | 1.0 | 2.0 | 0.00 | 0.00 | 0.00 | 88 | 1017.7 |
| 20260903011501 | 64 | 131 | 0.0 | 1.0 | 0.00 | 0.00 | 0.00 | 89 | 1018.3 |
| 20260903011202 | 65 | 332 | 1.0 | 8.0 | 0.00 | 0.00 | 0.00 | 88 | 1017.5 |
| 20260903010956 | 64 | 102 | 2.0 | 4.0 | 0.00 | 0.00 | 0.00 | 89 | 1018.2 |
| 20260903010702 | 65 | 131 | 2.0 | 9.0 | 0.00 | 0.00 | 0.00 | 88 | 1017.4 |
| 20260903010457 | 64 | 152 | 2.0 | 3.0 | 0.00 | 0.00 | 0.00 | 88 | 1018.2 |
| 20260903010203 | 65 | 93 | 0.0 | 0.0 | 0.00 | 0.00 | 0.00 | 88 | 1017.6 |
| 20260903005954 | 65 | 140 | 1.0 | 4.0 | 0.00 | 0.00 | 0.00 | 88 | 1018.3 |
| 20260903005703 | 65 | 163 | 0.0 | 2.0 | 0.00 | 0.00 | 0.00 | 88 | 1017.6 |
| 20260903005450 | 65 | 80 | 2.0 | 3.0 | 0.00 | 0.00 | 0.00 | 88 | 1018.5 |
| 20260903005202 | 65 | 216 | 0.0 | 0.0 | 0.00 | 0.00 | 0.00 | 87 | 1017.6 |
| 20260903004946 | 65 | 132 | 0.0 | 1.0 | 0.00 | 0.00 | 0.00 | 88 | 1018.3 |
| 20260903004703 | 65 | 200 | 1.0 | 3.0 | 0.00 | 0.00 | 0.00 | 87 | 1017.7 |
| 20260903004440 | 65 | 129 | 1.0 | 1.0 | 0.00 | 0.00 | 0.00 | 88 | 1018.4 |
| 20260903004203 | 65 | 140 | 0.0 | 0.0 | 0.00 | 0.00 | 0.00 | 87 | 1017.8 |
| 20260903003936 | 65 | 150 | 0.0 | 1.0 | 0.00 | 0.00 | 0.00 | 88 | 1018.5 |
| 20260903003703 | 65 | 187 | 0.0 | 0.0 | 0.00 | 0.00 | 0.00 | 87 | 1017.7 |
| 20260903003436 | 65 | 148 | 0.0 | 1.0 | 0.00 | 0.00 | 0.00 | 88 | 1018.4 |
| 20260903003203 | 65 | 167 | 0.0 | 0.0 | 0.00 | 0.00 | 0.00 | 87 | 1017.7 |
| 20260903002931 | 65 | 139 | 1.0 | 3.0 | 0.00 | 0.00 | 0.00 | 87 | 1018.1 |
| 20260903002704 | 65 | 97 | 3.0 | 10.0 | 0.00 | 0.00 | 0.00 | 86 | 1017.5 |
| 20260903002426 | 65 | 142 | 0.0 | 2.0 | 0.00 | 0.00 | 0.00 | 87 | 1018.5 |
| 20260903002203 | 66 | 111 | 1.0 | 6.0 | 0.00 | 0.00 | 0.00 | 86 | 1017.4 |
| 20260903001926 | 65 | 141 | 0.0 | 4.0 | 0.00 | 0.00 | 0.00 | 87 | 1018.3 |
| 20260903001703 | 66 | 126 | 0.0 | 3.0 | 0.00 | 0.00 | 0.00 | 86 | 1017.5 |
| 20260903001426 | 65 | 122 | 0.0 | 2.0 | 0.00 | 0.00 | 0.00 | 86 | 1018.4 |
| 20260903001203 | 66 | 132 | 1.0 | 9.0 | 0.00 | 0.00 | 0.00 | 86 | 1017.7 |
| 20260903000925 | 65 | 138 | 0.0 | 1.0 | 0.00 | 0.00 | 0.00 | 86 | 1018.4 |
| 20260903000703 | 66 | 83 | 0.0 | 0.0 | 0.00 | 0.00 | 0.00 | 85 | 1017.7 |
| 20260903000421 | 65 | 113 | 0.0 | 1.0 | 0.00 | 0.00 | 0.00 | 86 | 1018.7 |
| 20260903000204 | 66 | 124 | 0.0 | 1.0 | 0.00 | 0.00 | 0.00 | 85 | 1017.9 |
| 20260902235919 | 65 | 78 | 1.0 | 1.0 | 0.00 | 0.00 | 0.00 | 85 | 1018.5 |
| 20260902235702 | 66 | 175 | 1.0 | 5.0 | 0.00 | 0.00 | 0.00 | 85 | 1017.7 |
| 20260902235415 | 66 | 125 | 1.0 | 3.0 | 0.00 | 0.00 | 0.00 | 85 | 1018.2 |